Time;durP1;ratioP1;P1;durP2;ratioP2;P2;SDS_P1;SDS_P2;PMS_P1;PMS_P2;Temp;Humidity;BMP_temperature;BMP_pressure;BME280_temperature;BME280_humidity;BME280_pressure;Samples;Min_cycle;Max_cycle;Signal;HPM_P1;HPM_P2
2023/09/03 00:01:33;;;;;;;29.23;26.07;;;16.20;99.90;;;;;;5062745;28;20639;-71
2023/09/03 00:03:59;;;;;;;27.10;24.30;;;16.20;99.90;;;;;;5045073;28;20831;-72
2023/09/03 00:06:25;;;;;;;27.10;24.40;;;16.20;99.90;;;;;;5043241;28;20189;-72
2023/09/03 00:08:50;;;;;;;30.03;26.40;;;16.20;99.90;;;;;;5048184;28;20539;-72
2023/09/03 00:11:16;;;;;;;29.63;26.13;;;16.20;99.90;;;;;;5048888;28;20543;-72
2023/09/03 00:13:45;;;;;;;30.57;27.40;;;16.20;99.90;;;;;;5048696;28;20196;-72
2023/09/03 00:16:11;;;;;;;28.63;25.60;;;16.20;99.90;;;;;;5047592;28;20186;-71
2023/09/03 00:18:37;;;;;;;27.60;24.53;;;16.20;99.90;;;;;;5048389;28;20995;-72
2023/09/03 00:21:05;;;;;;;26.87;23.50;;;16.20;99.90;;;;;;5048195;28;20174;-71
2023/09/03 00:23:31;;;;;;;25.73;23.07;;;16.10;99.90;;;;;;5047409;28;20500;-72
2023/09/03 00:25:58;;;;;;;24.97;22.37;;;16.00;99.90;;;;;;5047272;28;20451;-72
2023/09/03 00:28:25;;;;;;;24.43;22.03;;;16.00;99.90;;;;;;5046998;28;20661;-71
2023/09/03 00:31:04;;;;;;;26.63;23.83;;;15.90;99.90;;;;;;5065359;28;20522;-72
2023/09/03 00:33:30;;;;;;;24.43;21.80;;;15.90;99.90;;;;;;5068502;28;20922;-72
2023/09/03 00:35:56;;;;;;;26.03;23.40;;;15.80;99.90;;;;;;5067028;28;20404;-72
2023/09/03 00:38:22;;;;;;;26.33;22.87;;;15.80;99.90;;;;;;5066765;28;20904;-72
2023/09/03 00:40:48;;;;;;;25.77;23.07;;;15.80;99.90;;;;;;5067928;28;20426;-72
2023/09/03 00:43:13;;;;;;;26.00;23.20;;;15.70;99.90;;;;;;5067923;28;20181;-72
2023/09/03 00:45:41;;;;;;;28.10;23.83;;;15.70;99.90;;;;;;5066322;28;20750;-71
2023/09/03 00:48:09;;;;;;;26.23;23.43;;;15.70;99.90;;;;;;5067729;28;20192;-72
2023/09/03 00:50:37;;;;;;;24.93;21.67;;;15.70;99.90;;;;;;5067908;28;20497;-71
2023/09/03 00:53:05;;;;;;;30.30;24.17;;;15.70;99.90;;;;;;5050369;28;20486;-72
2023/09/03 00:55:32;;;;;;;32.43;27.27;;;15.70;99.90;;;;;;5047216;28;20420;-72
2023/09/03 00:57:59;;;;;;;34.70;28.70;;;15.80;99.90;;;;;;5046074;28;20928;-71
2023/09/03 01:00:25;;;;;;;36.57;31.83;;;15.80;99.90;;;;;;5044938;28;20875;-71
2023/09/03 01:02:53;;;;;;;34.23;29.53;;;15.90;99.90;;;;;;5047909;28;20412;-72
2023/09/03 01:05:21;;;;;;;34.27;29.27;;;15.80;99.90;;;;;;5056859;28;20407;-72
2023/09/03 01:07:48;;;;;;;38.33;31.10;;;15.90;99.90;;;;;;5067392;28;20560;-72
2023/09/03 01:10:18;;;;;;;35.07;29.20;;;15.90;99.90;;;;;;5057297;28;20447;-71
2023/09/03 01:13:03;;;;;;;33.70;30.03;;;16.00;99.90;;;;;;5047997;28;20427;-72
2023/09/03 01:15:35;;;;;;;33.30;28.30;;;16.00;99.90;;;;;;5047784;28;20427;-71
2023/09/03 01:18:15;;;;;;;34.23;28.83;;;16.00;99.90;;;;;;5047809;28;20500;-72
2023/09/03 01:20:58;;;;;;;32.87;27.83;;;16.00;99.90;;;;;;5047887;28;20916;-72
2023/09/03 01:23:55;;;;;;;29.67;26.20;;;16.00;99.90;;;;;;5047490;28;20404;-71
2023/09/03 01:26:55;;;;;;;32.50;28.20;;;16.00;99.90;;;;;;5048817;28;20446;-71
2023/09/03 01:29:21;;;;;;;30.63;26.17;;;16.00;99.90;;;;;;5056625;28;20440;-72
2023/09/03 01:31:48;;;;;;;27.17;23.03;;;15.90;99.90;;;;;;5058868;28;20507;-71
2023/09/03 01:34:16;;;;;;;26.97;24.07;;;15.90;99.90;;;;;;5079597;28;20498;-71
2023/09/03 01:36:42;;;;;;;26.03;22.90;;;15.90;99.90;;;;;;5078937;28;20474;-72
2023/09/03 01:39:08;;;;;;;26.93;24.00;;;15.90;99.90;;;;;;5065046;28;20572;-71
2023/09/03 01:41:37;;;;;;;28.00;24.53;;;15.80;99.90;;;;;;5050266;28;20499;-72
2023/09/03 01:44:05;;;;;;;28.30;23.67;;;15.80;99.90;;;;;;5046642;28;20190;-72
2023/09/03 01:46:54;;;;;;;26.13;23.23;;;15.70;99.90;;;;;;5044983;28;20499;-72
2023/09/03 01:49:30;;;;;;;23.73;20.53;;;15.70;99.90;;;;;;5046761;28;20801;-72
2023/09/03 01:52:12;;;;;;;25.43;22.10;;;15.60;99.90;;;;;;5046108;28;20427;-72
2023/09/03 01:54:40;;;;;;;27.80;24.80;;;15.60;99.90;;;;;;5045533;28;20442;-72
2023/09/03 01:57:16;;;;;;;29.67;24.37;;;15.60;99.90;;;;;;5044626;28;20416;-72
2023/09/03 01:59:44;;;;;;;27.63;24.60;;;15.60;99.90;;;;;;5043419;28;20463;-72
2023/09/03 02:02:12;;;;;;;27.37;23.23;;;15.60;99.90;;;;;;5046870;28;20448;-71
2023/09/03 02:04:37;;;;;;;27.07;24.13;;;15.60;99.90;;;;;;5046585;28;20412;-72
2023/09/03 02:07:04;;;;;;;30.87;24.80;;;15.60;99.90;;;;;;5044513;28;20414;-72
2023/09/03 02:09:30;;;;;;;27.17;24.23;;;15.50;99.90;;;;;;5046836;28;20212;-72
2023/09/03 02:11:56;;;;;;;25.70;22.90;;;15.50;99.90;;;;;;5045372;28;20503;-72
2023/09/03 02:14:22;;;;;;;31.73;23.13;;;15.50;99.90;;;;;;5046492;28;20491;-72
2023/09/03 02:16:47;;;;;;;27.37;23.40;;;15.50;99.90;;;;;;5045906;28;20515;-72
2023/09/03 02:19:13;;;;;;;28.50;24.77;;;15.50;99.90;;;;;;5046536;28;20201;-72
2023/09/03 02:21:39;;;;;;;25.53;22.87;;;15.50;99.90;;;;;;5046704;28;20643;-72
2023/09/03 02:24:05;;;;;;;26.77;23.87;;;15.50;99.90;;;;;;5046517;28;20188;-72
2023/09/03 02:26:30;;;;;;;26.17;23.20;;;15.50;99.90;;;;;;5044557;28;20174;-71
2023/09/03 02:28:56;;;;;;;26.60;23.60;;;15.50;99.90;;;;;;5049555;28;20200;-72
2023/09/03 02:31:22;;;;;;;25.33;22.63;;;15.40;99.90;;;;;;5066188;28;20205;-71
2023/09/03 02:33:48;;;;;;;26.53;23.63;;;15.40;99.90;;;;;;5066769;28;20181;-71
2023/09/03 02:36:13;;;;;;;25.30;22.67;;;15.40;99.90;;;;;;5064043;28;20411;-72
2023/09/03 02:38:40;;;;;;;28.47;23.37;;;15.40;99.90;;;;;;5066542;28;20231;-71
2023/09/03 02:41:06;;;;;;;29.23;25.93;;;15.40;99.90;;;;;;5066489;28;20177;-72
2023/09/03 02:43:31;;;;;;;31.37;26.37;;;15.40;99.90;;;;;;5066709;28;20411;-72
2023/09/03 02:45:57;;;;;;;30.73;26.87;;;15.30;99.90;;;;;;5065543;28;20221;-71
2023/09/03 02:48:23;;;;;;;34.50;29.00;;;15.40;99.90;;;;;;5066111;28;20223;-71
2023/09/03 02:50:48;;;;;;;34.37;26.47;;;15.40;99.90;;;;;;5066503;28;20803;-71
2023/09/03 02:53:14;;;;;;;33.27;28.07;;;15.30;99.90;;;;;;5066048;28;20181;-72
2023/09/03 02:55:40;;;;;;;34.53;27.67;;;15.40;99.90;;;;;;5064241;28;20273;-71
2023/09/03 02:58:05;;;;;;;33.67;29.20;;;15.40;99.90;;;;;;5066392;28;20630;-72
2023/09/03 03:00:33;;;;;;;31.07;27.57;;;15.40;99.90;;;;;;5064661;28;20208;-71
2023/09/03 03:02:59;;;;;;;34.47;29.17;;;15.40;99.90;;;;;;5066422;28;20732;-71
2023/09/03 03:05:25;;;;;;;33.20;28.07;;;15.40;99.90;;;;;;5065582;28;20404;-71
2023/09/03 03:07:51;;;;;;;32.20;26.50;;;15.40;99.90;;;;;;5065912;28;20266;-72
2023/09/03 03:10:17;;;;;;;32.37;26.87;;;15.40;99.90;;;;;;5069146;28;20276;-71
2023/09/03 03:12:45;;;;;;;31.27;26.30;;;15.30;99.90;;;;;;5068212;28;20662;-72
2023/09/03 03:15:11;;;;;;;29.70;26.30;;;15.30;99.90;;;;;;5069445;28;20803;-71
2023/09/03 03:17:37;;;;;;;30.87;26.87;;;15.30;99.90;;;;;;5067326;28;20415;-71
2023/09/03 03:20:03;;;;;;;33.13;27.07;;;15.20;99.90;;;;;;5069568;28;20284;-71
2023/09/03 03:22:28;;;;;;;28.73;23.97;;;15.20;99.90;;;;;;5069692;28;20173;-71
2023/09/03 03:24:54;;;;;;;32.70;26.20;;;15.20;99.90;;;;;;5069387;28;20449;-71
2023/09/03 03:27:20;;;;;;;29.60;25.20;;;15.30;99.90;;;;;;5069020;28;20177;-71
2023/09/03 03:29:46;;;;;;;31.17;26.43;;;15.30;99.90;;;;;;5054831;28;20705;-71
2023/09/03 03:32:11;;;;;;;35.10;27.10;;;15.40;99.90;;;;;;5048112;28;20286;-72
2023/09/03 03:34:41;;;;;;;29.87;26.27;;;15.40;99.90;;;;;;5048943;28;20639;-72
2023/09/03 03:37:07;;;;;;;34.07;27.17;;;15.30;99.90;;;;;;5048872;28;20184;-71
2023/09/03 03:39:32;;;;;;;41.77;30.00;;;15.30;99.90;;;;;;5049133;28;20483;-72
2023/09/03 03:41:58;;;;;;;34.77;28.77;;;15.40;99.90;;;;;;5049366;28;20178;-71
2023/09/03 03:44:24;;;;;;;34.50;28.57;;;15.30;99.90;;;;;;5049128;28;20170;-72
2023/09/03 03:46:49;;;;;;;35.20;27.00;;;15.40;99.90;;;;;;5046781;28;20192;-71
2023/09/03 03:49:15;;;;;;;31.40;26.93;;;15.40;99.90;;;;;;5049130;28;20197;-71
2023/09/03 03:51:41;;;;;;;32.03;28.53;;;15.30;99.90;;;;;;5049023;28;20208;-72
2023/09/03 03:54:06;;;;;;;31.63;28.00;;;15.30;99.90;;;;;;5047966;28;20277;-72
2023/09/03 03:56:32;;;;;;;34.40;28.97;;;15.20;99.90;;;;;;5048072;28;20220;-71
2023/09/03 03:58:58;;;;;;;30.70;26.73;;;15.20;99.90;;;;;;5048570;28;20663;-71
2023/09/03 04:01:23;;;;;;;36.93;29.83;;;15.20;99.90;;;;;;5047181;28;20178;-71
2023/09/03 04:03:51;;;;;;;34.00;27.70;;;15.20;99.90;;;;;;5048820;28;20976;-72
2023/09/03 04:06:17;;;;;;;32.77;28.50;;;15.10;99.90;;;;;;5046522;28;20173;-71
2023/09/03 04:08:43;;;;;;;31.43;27.33;;;15.10;99.90;;;;;;5048796;28;20480;-71
2023/09/03 04:11:10;;;;;;;32.93;26.50;;;15.00;99.90;;;;;;5048564;28;20939;-71
2023/09/03 04:13:37;;;;;;;30.13;25.70;;;14.90;99.90;;;;;;5048612;28;20412;-71
2023/09/03 04:16:11;;;;;;;28.80;25.00;;;14.80;99.90;;;;;;5047729;28;20409;-71
2023/09/03 04:18:37;;;;;;;27.60;23.47;;;14.80;99.90;;;;;;5048643;28;20447;-71
2023/09/03 04:21:03;;;;;;;26.10;23.30;;;14.70;99.90;;;;;;5047534;28;20443;-72
2023/09/03 04:23:29;;;;;;;29.87;26.07;;;14.70;99.90;;;;;;5047455;28;20444;-71
2023/09/03 04:25:56;;;;;;;29.30;26.10;;;14.70;99.90;;;;;;5047811;28;20285;-71
2023/09/03 04:28:22;;;;;;;26.83;23.83;;;14.70;99.90;;;;;;5048457;28;20178;-71
2023/09/03 04:30:55;;;;;;;27.97;24.80;;;14.70;99.90;;;;;;5066667;28;20488;-71
2023/09/03 04:33:21;;;;;;;30.80;25.30;;;14.70;99.90;;;;;;5047790;28;20769;-71
2023/09/03 04:35:47;;;;;;;35.10;24.23;;;14.60;99.90;;;;;;5058719;28;20411;-72
2023/09/03 04:38:13;;;;;;;33.20;26.63;;;14.60;99.90;;;;;;5077549;28;20426;-71
2023/09/03 04:40:38;;;;;;;36.17;29.10;;;14.60;99.90;;;;;;5073948;28;20220;-71
2023/09/03 04:43:05;;;;;;;35.93;29.60;;;14.70;99.90;;;;;;5056192;28;20273;-72
2023/09/03 04:45:31;;;;;;;37.00;29.27;;;14.70;99.90;;;;;;5049180;28;20208;-72
2023/09/03 04:47:58;;;;;;;37.97;28.27;;;14.70;99.90;;;;;;5048212;28;20421;-72
2023/09/03 04:50:25;;;;;;;37.27;30.37;;;14.70;99.90;;;;;;5047885;28;20456;-71
2023/09/03 04:52:54;;;;;;;41.53;27.67;;;14.80;99.90;;;;;;5048305;28;20463;-72
2023/09/03 04:55:20;;;;;;;39.83;29.57;;;14.80;99.90;;;;;;5047234;28;20425;-71
2023/09/03 04:57:45;;;;;;;33.50;27.53;;;14.90;99.90;;;;;;5047485;28;20470;-71
2023/09/03 05:00:11;;;;;;;37.43;27.40;;;14.90;99.90;;;;;;5046174;28;20464;-71
2023/09/03 05:02:37;;;;;;;40.60;28.43;;;14.90;99.90;;;;;;5047874;28;20709;-71
2023/09/03 05:05:03;;;;;;;33.40;27.50;;;14.90;99.90;;;;;;5047324;28;20408;-71
2023/09/03 05:07:30;;;;;;;32.73;28.53;;;14.90;99.90;;;;;;5047094;28;20599;-71
2023/09/03 05:09:56;;;;;;;31.60;26.20;;;14.90;99.90;;;;;;5047598;28;20871;-71
2023/09/03 05:12:22;;;;;;;34.80;28.30;;;14.90;99.90;;;;;;5045904;28;20424;-72
2023/09/03 05:14:48;;;;;;;37.27;28.67;;;15.00;99.90;;;;;;5047184;28;20424;-71
2023/09/03 05:17:14;;;;;;;36.50;30.20;;;15.00;99.90;;;;;;5046904;28;20182;-72
2023/09/03 05:19:40;;;;;;;39.40;29.97;;;15.10;99.90;;;;;;5047250;28;20467;-71
2023/09/03 05:22:07;;;;;;;36.47;29.43;;;15.10;99.90;;;;;;5056423;28;20649;-71
2023/09/03 05:24:32;;;;;;;38.80;30.30;;;15.10;99.90;;;;;;5065747;28;20643;-71
2023/09/03 05:26:58;;;;;;;36.10;30.03;;;15.10;99.90;;;;;;5081976;28;20569;-71
2023/09/03 05:29:24;;;;;;;36.50;28.70;;;15.20;99.90;;;;;;5055602;28;20673;-71
2023/09/03 05:31:50;;;;;;;79.53;32.37;;;15.20;99.90;;;;;;5046841;28;20551;-71
2023/09/03 05:34:15;;;;;;;40.37;30.07;;;15.20;99.90;;;;;;5047060;28;20181;-72
2023/09/03 05:36:41;;;;;;;33.83;28.43;;;15.20;99.90;;;;;;5046096;28;20182;-71
2023/09/03 05:39:07;;;;;;;34.80;28.80;;;15.20;99.90;;;;;;5047166;28;20947;-71
2023/09/03 05:41:32;;;;;;;46.40;30.00;;;15.20;99.90;;;;;;5045595;28;20264;-71
2023/09/03 05:44:01;;;;;;;36.27;30.43;;;15.20;99.90;;;;;;5047023;28;20170;-71
2023/09/03 05:46:27;;;;;;;33.93;28.80;;;15.30;99.90;;;;;;5046180;28;20420;-71
2023/09/03 05:48:53;;;;;;;37.80;29.17;;;15.30;99.90;;;;;;5046803;28;20526;-71
2023/09/03 05:51:18;;;;;;;43.43;30.57;;;15.30;99.90;;;;;;5047137;28;20686;-71
2023/09/03 05:53:44;;;;;;;33.90;27.70;;;15.40;99.90;;;;;;5046602;28;20478;-71
2023/09/03 05:56:11;;;;;;;43.73;29.30;;;15.40;99.90;;;;;;5045942;28;20723;-71
2023/09/03 05:58:37;;;;;;;38.57;30.37;;;15.40;99.90;;;;;;5046572;28;20552;-71
2023/09/03 06:01:04;;;;;;;46.33;29.57;;;15.50;99.90;;;;;;5044283;28;20848;-71
2023/09/03 06:03:30;;;;;;;33.60;29.33;;;15.40;99.90;;;;;;5046999;28;20417;-71
2023/09/03 06:05:55;;;;;;;28.00;24.97;;;15.50;99.90;;;;;;5045682;28;21020;-71
2023/09/03 06:08:21;;;;;;;33.07;27.83;;;15.50;99.90;;;;;;5046723;28;20205;-71
2023/09/03 06:10:47;;;;;;;33.07;27.57;;;15.50;99.90;;;;;;5046592;28;20307;-71
2023/09/03 06:13:12;;;;;;;30.30;27.00;;;15.50;99.90;;;;;;5045325;28;20182;-71
2023/09/03 06:15:38;;;;;;;38.80;28.67;;;15.50;99.90;;;;;;5045863;28;20189;-71
2023/09/03 06:18:04;;;;;;;32.13;28.40;;;15.50;99.90;;;;;;5045221;28;20186;-71
2023/09/03 06:20:32;;;;;;;36.97;28.53;;;15.60;99.90;;;;;;5046679;28;20213;-71
2023/09/03 06:22:58;;;;;;;37.43;29.60;;;15.60;99.90;;;;;;5046597;28;20186;-71
2023/09/03 06:25:23;;;;;;;33.63;28.53;;;15.60;99.90;;;;;;5046232;28;20956;-71
2023/09/03 06:27:49;;;;;;;32.33;28.17;;;15.60;99.90;;;;;;5044683;28;20190;-71
2023/09/03 06:30:15;;;;;;;36.77;27.20;;;15.60;99.90;;;;;;5059630;28;20300;-71
2023/09/03 06:32:40;;;;;;;34.47;27.47;;;15.60;99.90;;;;;;5066806;28;20193;-71
2023/09/03 06:35:06;;;;;;;33.83;27.60;;;15.60;99.90;;;;;;5066058;28;20250;-71
2023/09/03 06:37:32;;;;;;;37.50;28.53;;;15.60;99.90;;;;;;5065077;28;20264;-71
2023/09/03 06:39:59;;;;;;;35.90;29.33;;;15.70;99.90;;;;;;5066291;28;20532;-71
2023/09/03 06:42:26;;;;;;;34.30;28.60;;;15.70;99.90;;;;;;5065175;28;20412;-71
2023/09/03 06:44:52;;;;;;;32.57;29.03;;;15.70;99.90;;;;;;5068754;28;20638;-71
2023/09/03 06:47:18;;;;;;;33.43;28.00;;;15.70;99.90;;;;;;5068220;28;20468;-72
2023/09/03 06:49:43;;;;;;;39.93;28.80;;;15.60;99.90;;;;;;5070274;28;20213;-71
2023/09/03 06:52:09;;;;;;;34.67;27.80;;;15.60;99.90;;;;;;5070198;28;20193;-72
2023/09/03 06:54:35;;;;;;;30.20;27.00;;;15.60;99.90;;;;;;5070391;28;20266;-72
2023/09/03 06:57:00;;;;;;;34.83;28.03;;;15.70;99.90;;;;;;5069736;28;20184;-71
2023/09/03 06:59:26;;;;;;;36.80;30.30;;;15.70;99.90;;;;;;5068649;28;21009;-72
2023/09/03 07:01:52;;;;;;;33.60;28.40;;;15.70;99.90;;;;;;5070244;28;20544;-72
2023/09/03 07:04:17;;;;;;;36.37;29.33;;;15.70;99.90;;;;;;5069731;28;20173;-71
2023/09/03 07:06:43;;;;;;;34.80;28.40;;;15.80;99.90;;;;;;5069397;28;20637;-71
2023/09/03 07:09:10;;;;;;;39.43;30.60;;;15.80;99.90;;;;;;5069940;28;20711;-71
2023/09/03 07:11:36;;;;;;;42.00;32.37;;;16.00;99.90;;;;;;5069738;28;20185;-72
2023/09/03 07:14:02;;;;;;;43.90;33.17;;;16.00;99.90;;;;;;5068752;28;20964;-71
2023/09/03 07:16:28;;;;;;;49.70;35.17;;;16.00;99.90;;;;;;5069017;28;20525;-71
2023/09/03 07:18:53;;;;;;;45.77;34.60;;;16.00;99.90;;;;;;5069723;28;20211;-71
2023/09/03 07:21:19;;;;;;;44.90;33.63;;;16.00;99.90;;;;;;5068789;28;20260;-71
2023/09/03 07:23:45;;;;;;;53.10;36.23;;;16.10;99.90;;;;;;5068357;28;20549;-71
2023/09/03 07:26:11;;;;;;;54.97;36.30;;;16.10;99.90;;;;;;5067746;28;20437;-71
2023/09/03 07:28:38;;;;;;;45.67;34.67;;;16.10;99.90;;;;;;5064884;28;20205;-71
2023/09/03 07:31:04;;;;;;;47.87;36.27;;;16.10;99.90;;;;;;5046880;28;20289;-71
2023/09/03 07:33:32;;;;;;;59.70;41.10;;;16.10;99.90;;;;;;5049751;28;20968;-72
2023/09/03 07:35:58;;;;;;;49.30;36.77;;;16.20;99.90;;;;;;5049580;28;20412;-71
2023/09/03 07:38:25;;;;;;;50.83;35.23;;;16.20;99.90;;;;;;5050595;28;20461;-72
2023/09/03 07:40:51;;;;;;;51.43;36.60;;;16.20;99.90;;;;;;5080020;28;20467;-72
2023/09/03 07:43:17;;;;;;;52.77;37.13;;;16.30;99.90;;;;;;5066960;28;20412;-71
2023/09/03 07:45:42;;;;;;;59.50;40.00;;;16.20;99.90;;;;;;5058183;28;20430;-72
2023/09/03 07:48:09;;;;;;;50.17;35.00;;;16.30;99.90;;;;;;5051898;28;20186;-72
2023/09/03 07:50:38;;;;;;;64.60;37.77;;;16.30;99.90;;;;;;5049759;28;20197;-72
2023/09/03 07:53:03;;;;;;;46.37;34.73;;;16.30;99.90;;;;;;5049583;28;20405;-72
2023/09/03 07:55:30;;;;;;;51.93;37.37;;;16.30;99.90;;;;;;5048624;28;20507;-72
2023/09/03 07:57:56;;;;;;;51.00;35.40;;;16.40;99.90;;;;;;5047448;28;20181;-72
2023/09/03 08:00:22;;;;;;;54.37;39.00;;;16.40;99.90;;;;;;5047540;28;20828;-72
2023/09/03 08:02:47;;;;;;;48.87;35.03;;;16.30;99.90;;;;;;5049152;28;20193;-71
2023/09/03 08:05:13;;;;;;;46.50;33.97;;;16.40;99.90;;;;;;5047716;28;20622;-72
2023/09/03 08:07:39;;;;;;;47.80;34.80;;;16.40;99.90;;;;;;5048472;28;20189;-72
2023/09/03 08:10:05;;;;;;;48.17;36.87;;;16.50;99.90;;;;;;5048791;28;20623;-72
2023/09/03 08:12:31;;;;;;;46.40;33.93;;;16.50;99.90;;;;;;5049007;28;20737;-72
2023/09/03 08:14:56;;;;;;;42.07;32.53;;;16.50;99.90;;;;;;5046794;28;20565;-72
2023/09/03 08:17:23;;;;;;;45.37;34.70;;;16.60;99.90;;;;;;5048454;28;20870;-72
2023/09/03 08:19:50;;;;;;;48.03;36.30;;;16.60;99.90;;;;;;5048680;28;20213;-72
2023/09/03 08:22:16;;;;;;;53.80;38.73;;;16.70;99.90;;;;;;5048977;28;20472;-72
2023/09/03 08:24:41;;;;;;;49.23;36.53;;;16.60;99.90;;;;;;5047181;28;20412;-72
2023/09/03 08:27:07;;;;;;;52.00;37.50;;;16.60;99.90;;;;;;5046592;28;20182;-72
2023/09/03 08:29:33;;;;;;;51.53;37.30;;;16.60;99.90;;;;;;5056213;28;20630;-72
2023/09/03 08:31:58;;;;;;;52.20;39.10;;;16.70;99.90;;;;;;5068666;28;20212;-72
2023/09/03 08:34:24;;;;;;;47.50;36.90;;;16.70;99.90;;;;;;5068242;28;20181;-72
2023/09/03 08:36:50;;;;;;;58.87;40.50;;;16.70;99.90;;;;;;5067773;28;20185;-72
2023/09/03 08:39:15;;;;;;;49.87;38.50;;;16.80;99.90;;;;;;5068270;28;20213;-72
2023/09/03 08:41:42;;;;;;;48.70;37.23;;;16.90;99.90;;;;;;5067005;28;20177;-72
2023/09/03 08:44:34;;;;;;;46.60;36.80;;;17.00;99.90;;;;;;5068392;28;20169;-72
2023/09/03 08:47:03;;;;;;;50.20;38.50;;;16.90;99.90;;;;;;5067191;28;20416;-72
2023/09/03 08:49:32;;;;;;;53.13;40.47;;;16.90;99.90;;;;;;5068557;28;20495;-72
2023/09/03 08:51:58;;;;;;;52.13;37.10;;;17.00;99.90;;;;;;5067928;28;20419;-72
2023/09/03 08:54:25;;;;;;;49.10;36.60;;;16.90;99.90;;;;;;5068084;28;20415;-72
2023/09/03 08:56:51;;;;;;;47.40;38.47;;;17.10;99.90;;;;;;5064137;28;20420;-72
2023/09/03 08:59:16;;;;;;;53.43;40.83;;;17.20;99.90;;;;;;5048033;28;20460;-72
2023/09/03 09:01:45;;;;;;;50.03;36.20;;;17.30;99.90;;;;;;5029024;28;20932;-71
2023/09/03 09:04:12;;;;;;;47.60;37.60;;;17.30;99.90;;;;;;5046559;28;20180;-72
2023/09/03 09:06:39;;;;;;;49.00;38.50;;;17.50;99.90;;;;;;5046546;28;20930;-72
2023/09/03 09:09:06;;;;;;;43.50;36.10;;;17.60;99.90;;;;;;5047680;28;20792;-72
2023/09/03 09:11:35;;;;;;;43.43;33.10;;;17.70;99.90;;;;;;5048040;28;20971;-72
2023/09/03 09:14:05;;;;;;;46.90;35.10;;;17.80;99.90;;;;;;5047612;28;20416;-72
2023/09/03 09:16:31;;;;;;;43.00;33.57;;;18.00;99.90;;;;;;5047021;28;20412;-72
2023/09/03 09:18:58;;;;;;;43.50;34.33;;;18.00;99.90;;;;;;5047355;28;21030;-72
2023/09/03 09:21:25;;;;;;;40.90;34.20;;;18.10;99.90;;;;;;5047755;28;20205;-72
2023/09/03 09:23:59;;;;;;;42.00;33.63;;;18.30;99.90;;;;;;5047650;28;20804;-72
2023/09/03 09:26:30;;;;;;;38.17;31.50;;;18.40;99.90;;;;;;5045573;28;20897;-72
2023/09/03 09:29:01;;;;;;;38.57;29.37;;;18.60;99.90;;;;;;5048895;28;20973;-72
2023/09/03 09:31:31;;;;;;;36.03;29.13;;;18.60;99.90;;;;;;5042327;28;20440;-72
2023/09/03 09:34:08;;;;;;;39.03;30.90;;;18.80;99.90;;;;;;5047234;28;20416;-72
2023/09/03 09:36:34;;;;;;;33.00;28.33;;;18.90;99.90;;;;;;5044988;28;20913;-72
2023/09/03 09:39:07;;;;;;;37.23;31.73;;;19.10;99.90;;;;;;5047174;28;20532;-72
2023/09/03 09:41:39;;;;;;;31.37;27.63;;;19.20;99.90;;;;;;5047121;28;20420;-71
2023/09/03 09:44:10;;;;;;;32.03;27.80;;;19.30;99.90;;;;;;5046230;28;20420;-71
2023/09/03 09:46:36;;;;;;;28.83;25.60;;;19.50;99.90;;;;;;5046131;28;20404;-72
2023/09/03 09:49:02;;;;;;;29.03;25.30;;;19.60;99.90;;;;;;5047178;28;20463;-72
2023/09/03 09:51:30;;;;;;;28.63;25.63;;;19.80;99.90;;;;;;5033308;28;20420;-72
2023/09/03 09:54:01;;;;;;;30.87;26.70;;;19.90;99.90;;;;;;5067311;28;20427;-72
2023/09/03 09:56:28;;;;;;;29.30;26.17;;;20.00;99.90;;;;;;5041138;28;20743;-72
2023/09/03 09:58:55;;;;;;;24.73;22.13;;;20.20;99.90;;;;;;5045683;28;20432;-72
2023/09/03 10:01:20;;;;;;;24.73;22.17;;;20.20;99.90;;;;;;5046030;28;20420;-71
2023/09/03 10:03:49;;;;;;;25.80;21.63;;;20.30;99.90;;;;;;5045665;28;20764;-73
2023/09/03 10:06:19;;;;;;;21.43;19.30;;;20.30;99.90;;;;;;5046281;28;20705;-72
2023/09/03 10:08:47;;;;;;;18.50;16.60;;;20.40;99.90;;;;;;5046957;28;20523;-72
2023/09/03 10:11:13;;;;;;;21.27;19.00;;;20.50;99.90;;;;;;5047085;28;20427;-72
2023/09/03 10:13:39;;;;;;;20.13;18.20;;;20.50;99.90;;;;;;5046993;28;20423;-72
2023/09/03 10:16:09;;;;;;;19.43;17.47;;;20.60;99.90;;;;;;5046264;28;20416;-72
2023/09/03 10:18:55;;;;;;;19.53;17.57;;;20.60;99.90;;;;;;5047853;28;20324;-72
2023/09/03 10:21:24;;;;;;;18.00;16.10;;;20.60;99.90;;;;;;5051063;28;20448;-72
2023/09/03 10:23:51;;;;;;;17.67;15.80;;;20.60;99.90;;;;;;5051267;28;20510;-72
2023/09/03 10:26:27;;;;;;;20.63;18.40;;;20.60;99.90;;;;;;5050164;28;20764;-72
2023/09/03 10:28:57;;;;;;;15.90;14.30;;;20.80;99.90;;;;;;5052905;28;20467;-72
2023/09/03 10:31:24;;;;;;;16.50;14.90;;;20.80;99.90;;;;;;5070856;28;20449;-72
2023/09/03 10:33:50;;;;;;;18.33;16.63;;;20.90;99.90;;;;;;5071164;28;20803;-72
2023/09/03 10:36:20;;;;;;;19.57;17.50;;;21.00;99.90;;;;;;5068701;28;20417;-72
2023/09/03 10:38:47;;;;;;;15.40;13.90;;;21.00;99.90;;;;;;5071727;28;20424;-71
2023/09/03 10:41:21;;;;;;;18.50;16.70;;;21.10;99.90;;;;;;5069880;28;20843;-72
2023/09/03 10:43:54;;;;;;;18.57;16.67;;;21.30;99.90;;;;;;5071370;28;20430;-72
2023/09/03 10:46:25;;;;;;;17.57;15.53;;;21.10;99.90;;;;;;5067257;28;20928;-71
2023/09/03 10:49:00;;;;;;;13.50;12.20;;;21.10;99.90;;;;;;5070467;28;20450;-72
2023/09/03 10:51:37;;;;;;;15.10;13.60;;;21.20;99.90;;;;;;5051686;28;20403;-72
2023/09/03 10:54:20;;;;;;;15.43;12.63;;;21.30;99.90;;;;;;5050889;28;20416;-72
2023/09/03 10:57:04;;;;;;;13.17;11.73;;;21.40;99.90;;;;;;5049667;28;20419;-72
2023/09/03 11:00:15;;;;;;;11.27;10.27;;;21.40;99.90;;;;;;5049030;28;20495;-72
2023/09/03 11:02:42;;;;;;;12.60;10.80;;;21.60;99.90;;;;;;4955054;28;20435;-72
2023/09/03 11:05:13;;;;;;;8.87;8.07;;;21.70;99.90;;;;;;5045736;28;20949;-72
2023/09/03 11:07:41;;;;;;;7.97;7.17;;;21.80;99.90;;;;;;5069213;28;20944;-72
2023/09/03 11:10:25;;;;;;;6.03;5.33;;;21.90;99.90;;;;;;5070083;28;20467;-72
2023/09/03 11:12:54;;;;;;;5.50;4.40;;;21.90;99.90;;;;;;5068938;28;20454;-72
2023/09/03 11:15:20;;;;;;;5.93;5.40;;;21.90;99.90;;;;;;5069378;28;20449;-72
2023/09/03 11:17:54;;;;;;;5.63;5.17;;;22.00;99.90;;;;;;5069505;28;20434;-72
2023/09/03 11:20:36;;;;;;;5.80;5.20;;;22.00;99.90;;;;;;5069413;28;20466;-72
2023/09/03 11:23:03;;;;;;;5.63;5.13;;;22.00;99.90;;;;;;5069593;28;20525;-72
2023/09/03 11:25:34;;;;;;;3.77;3.57;;;22.00;99.90;;;;;;5068197;28;20415;-72
2023/09/03 11:28:00;;;;;;;3.40;3.10;;;22.00;99.90;;;;;;5069113;28;20411;-72
2023/09/03 11:30:26;;;;;;;3.80;3.20;;;22.00;99.90;;;;;;5047778;28;20467;-72
2023/09/03 11:32:52;;;;;;;3.60;3.30;;;22.10;99.90;;;;;;5049962;28;20416;-72
2023/09/03 11:35:18;;;;;;;9.70;7.33;;;22.10;99.90;;;;;;5048895;28;20431;-72
2023/09/03 11:37:43;;;;;;;6.90;6.30;;;22.10;99.90;;;;;;5047927;28;20189;-72
2023/09/03 11:40:09;;;;;;;6.60;5.77;;;22.20;99.90;;;;;;5049361;28;20684;-71
2023/09/03 11:42:35;;;;;;;6.83;6.23;;;22.30;99.90;;;;;;5049486;28;20182;-72
2023/09/03 11:45:04;;;;;;;6.13;5.63;;;22.20;99.90;;;;;;5049180;28;20420;-72
2023/09/03 11:47:36;;;;;;;9.30;8.50;;;22.30;99.90;;;;;;5047144;28;20251;-72
2023/09/03 11:50:10;;;;;;;8.60;7.80;;;22.30;99.90;;;;;;5049307;28;20436;-72
2023/09/03 11:52:35;;;;;;;8.60;7.70;;;22.30;99.90;;;;;;5049297;28;20424;-72
2023/09/03 11:55:01;;;;;;;8.63;7.93;;;22.20;99.90;;;;;;5048796;28;21094;-72
2023/09/03 11:57:28;;;;;;;7.27;6.67;;;22.20;99.90;;;;;;5048364;28;20275;-72
2023/09/03 11:59:54;;;;;;;7.13;6.43;;;22.30;99.90;;;;;;5047561;28;20209;-71
2023/09/03 12:02:21;;;;;;;6.77;6.20;;;22.20;99.90;;;;;;5048717;28;20425;-72
2023/09/03 12:04:47;;;;;;;6.60;5.93;;;22.30;99.90;;;;;;5048809;28;20423;-72
2023/09/03 12:07:17;;;;;;;5.77;4.33;;;22.30;99.90;;;;;;5048266;28;21106;-71
2023/09/03 12:09:43;;;;;;;5.47;4.90;;;22.40;99.90;;;;;;5049118;28;20792;-72
2023/09/03 12:12:09;;;;;;;5.80;4.83;;;22.40;99.90;;;;;;5048975;28;20424;-72
2023/09/03 12:14:35;;;;;;;4.60;4.20;;;22.30;99.90;;;;;;5048914;28;20412;-72
2023/09/03 12:17:01;;;;;;;4.73;4.13;;;22.30;99.90;;;;;;5056718;28;20916;-72
2023/09/03 12:19:42;;;;;;;4.00;3.60;;;22.30;99.90;;;;;;5068303;28;20455;-72
2023/09/03 12:22:09;;;;;;;4.40;4.10;;;22.20;99.90;;;;;;5068493;28;20189;-72
2023/09/03 12:24:34;;;;;;;4.97;4.57;;;22.30;99.90;;;;;;5068587;28;20873;-72
2023/09/03 12:27:05;;;;;;;6.00;4.10;;;22.30;99.90;;;;;;5066570;28;20513;-72
2023/09/03 12:29:36;;;;;;;4.50;4.10;;;22.30;99.90;;;;;;5056364;28;20236;-72
2023/09/03 12:32:02;;;;;;;4.73;4.27;;;22.30;99.90;;;;;;5048447;28;20432;-72